Wincanton, United Kingdom
Current Conditions -  °F | °C
As of 12:50 PM on Wednesday 26 Nov 2014 (Local Time) from EGDY Reporting Station
Haze Haze  
Wind Chill: 46°   Ceiling: 400
Heat Index: 46°   Visibility: 1.8mi
Dew Point: 45°   Wind: 2mph
Humidity: 93%   Direction: 330°NNW
Pressure: 29.85"   Gusts: NA
Location:  51.06°N, 2.41°W
Report Text: EGDY 261250Z 33002KT 3000 HZ BKN004 OVC005 08/07 Q1011 YLO2 NOSIG
Loading
Personal Weather Stations






























Interactive Weather Map New forecast layout! Learn more

10-Day Weather Forecast

Advertisements
Track Severe Weather on mobile